sensor_id;sensor_type;location;lat;lon;timestamp;temperature;humidity
20246;DHT22;10281;54.406;18.556;2022-12-04T00:00:44;1.10;99.90
20246;DHT22;10281;54.406;18.556;2022-12-04T00:03:11;1.10;99.90
20246;DHT22;10281;54.406;18.556;2022-12-04T00:05:38;1.10;99.90
20246;DHT22;10281;54.406;18.556;2022-12-04T00:08:04;1.20;99.90
20246;DHT22;10281;54.406;18.556;2022-12-04T00:10:31;1.20;99.90
20246;DHT22;10281;54.406;18.556;2022-12-04T00:12:58;1.20;99.90
20246;DHT22;10281;54.406;18.556;2022-12-04T00:15:25;1.20;99.90
20246;DHT22;10281;54.406;18.556;2022-12-04T00:17:52;1.10;99.90
20246;DHT22;10281;54.406;18.556;2022-12-04T00:20:19;1.10;99.90
20246;DHT22;10281;54.406;18.556;2022-12-04T00:22:46;1.10;99.90
20246;DHT22;10281;54.406;18.556;2022-12-04T00:25:12;1.10;99.90
20246;DHT22;10281;54.406;18.556;2022-12-04T00:27:39;1.10;99.90
20246;DHT22;10281;54.406;18.556;2022-12-04T00:30:06;1.20;99.90
20246;DHT22;10281;54.406;18.556;2022-12-04T00:32:33;1.20;99.90
20246;DHT22;10281;54.406;18.556;2022-12-04T00:34:59;1.20;99.90
20246;DHT22;10281;54.406;18.556;2022-12-04T00:37:26;1.20;99.90
20246;DHT22;10281;54.406;18.556;2022-12-04T00:39:53;1.20;99.90
20246;DHT22;10281;54.406;18.556;2022-12-04T00:42:19;1.20;99.90
20246;DHT22;10281;54.406;18.556;2022-12-04T00:44:46;1.20;99.90
20246;DHT22;10281;54.406;18.556;2022-12-04T00:47:12;1.20;99.90
20246;DHT22;10281;54.406;18.556;2022-12-04T00:49:39;1.20;99.90
20246;DHT22;10281;54.406;18.556;2022-12-04T00:52:06;1.20;99.90
20246;DHT22;10281;54.406;18.556;2022-12-04T00:54:33;1.20;99.90
20246;DHT22;10281;54.406;18.556;2022-12-04T00:56:59;1.20;99.90
20246;DHT22;10281;54.406;18.556;2022-12-04T00:59:26;1.20;99.90
20246;DHT22;10281;54.406;18.556;2022-12-04T01:01:52;1.20;99.90
20246;DHT22;10281;54.406;18.556;2022-12-04T01:04:19;1.30;99.90
20246;DHT22;10281;54.406;18.556;2022-12-04T01:06:46;1.30;99.90
20246;DHT22;10281;54.406;18.556;2022-12-04T01:09:13;1.30;99.90
20246;DHT22;10281;54.406;18.556;2022-12-04T01:11:40;1.30;99.90
20246;DHT22;10281;54.406;18.556;2022-12-04T01:14:06;1.30;99.90
20246;DHT22;10281;54.406;18.556;2022-12-04T01:16:35;1.30;99.90
20246;DHT22;10281;54.406;18.556;2022-12-04T01:19:04;1.30;99.90
20246;DHT22;10281;54.406;18.556;2022-12-04T01:21:30;1.40;99.90
20246;DHT22;10281;54.406;18.556;2022-12-04T01:23:57;1.40;99.90
20246;DHT22;10281;54.406;18.556;2022-12-04T01:26:25;1.40;99.90
20246;DHT22;10281;54.406;18.556;2022-12-04T01:28:52;1.40;99.90
20246;DHT22;10281;54.406;18.556;2022-12-04T01:31:20;1.40;99.90
20246;DHT22;10281;54.406;18.556;2022-12-04T01:33:48;1.30;99.90
20246;DHT22;10281;54.406;18.556;2022-12-04T01:36:18;1.30;99.90
20246;DHT22;10281;54.406;18.556;2022-12-04T01:38:45;1.30;99.90
20246;DHT22;10281;54.406;18.556;2022-12-04T01:41:14;1.30;99.90
20246;DHT22;10281;54.406;18.556;2022-12-04T01:43:41;1.30;99.90
20246;DHT22;10281;54.406;18.556;2022-12-04T01:46:08;1.40;99.90
20246;DHT22;10281;54.406;18.556;2022-12-04T01:48:43;1.40;99.90
20246;DHT22;10281;54.406;18.556;2022-12-04T01:51:16;1.40;99.90
20246;DHT22;10281;54.406;18.556;2022-12-04T01:53:47;1.30;99.90
20246;DHT22;10281;54.406;18.556;2022-12-04T01:56:15;1.40;99.90
20246;DHT22;10281;54.406;18.556;2022-12-04T01:58:45;1.40;99.90
20246;DHT22;10281;54.406;18.556;2022-12-04T02:01:12;1.40;99.90
20246;DHT22;10281;54.406;18.556;2022-12-04T02:03:39;1.40;99.90
20246;DHT22;10281;54.406;18.556;2022-12-04T02:06:06;1.40;99.90
20246;DHT22;10281;54.406;18.556;2022-12-04T02:08:34;1.40;99.90
20246;DHT22;10281;54.406;18.556;2022-12-04T02:11:23;1.40;99.90
20246;DHT22;10281;54.406;18.556;2022-12-04T02:14:09;1.40;99.90
20246;DHT22;10281;54.406;18.556;2022-12-04T02:16:44;1.40;99.90
20246;DHT22;10281;54.406;18.556;2022-12-04T02:19:27;1.40;99.90
20246;DHT22;10281;54.406;18.556;2022-12-04T02:21:50;1.50;99.90
20246;DHT22;10281;54.406;18.556;2022-12-04T02:24:31;1.50;99.90
20246;DHT22;10281;54.406;18.556;2022-12-04T02:26:58;1.50;99.90
20246;DHT22;10281;54.406;18.556;2022-12-04T02:29:38;1.60;99.90
20246;DHT22;10281;54.406;18.556;2022-12-04T02:32:18;1.60;99.90
20246;DHT22;10281;54.406;18.556;2022-12-04T02:34:51;1.70;99.90
20246;DHT22;10281;54.406;18.556;2022-12-04T02:37:23;1.70;99.90
20246;DHT22;10281;54.406;18.556;2022-12-04T02:39:53;1.70;99.90
20246;DHT22;10281;54.406;18.556;2022-12-04T02:42:39;1.70;99.90
20246;DHT22;10281;54.406;18.556;2022-12-04T02:45:12;1.70;99.90
20246;DHT22;10281;54.406;18.556;2022-12-04T02:47:41;1.70;99.90
20246;DHT22;10281;54.406;18.556;2022-12-04T02:50:12;1.70;99.90
20246;DHT22;10281;54.406;18.556;2022-12-04T02:52:45;1.70;99.90
20246;DHT22;10281;54.406;18.556;2022-12-04T02:55:15;1.70;99.90
20246;DHT22;10281;54.406;18.556;2022-12-04T02:57:44;1.70;99.90
20246;DHT22;10281;54.406;18.556;2022-12-04T03:00:12;1.70;99.90
20246;DHT22;10281;54.406;18.556;2022-12-04T03:02:45;1.70;99.90
20246;DHT22;10281;54.406;18.556;2022-12-04T03:05:14;1.80;99.90
20246;DHT22;10281;54.406;18.556;2022-12-04T03:07:45;1.70;99.90
20246;DHT22;10281;54.406;18.556;2022-12-04T03:10:16;1.70;99.90
20246;DHT22;10281;54.406;18.556;2022-12-04T03:12:49;1.80;99.90
20246;DHT22;10281;54.406;18.556;2022-12-04T03:15:20;1.80;99.90
20246;DHT22;10281;54.406;18.556;2022-12-04T03:18:00;1.80;99.90
20246;DHT22;10281;54.406;18.556;2022-12-04T03:20:31;1.80;99.90
20246;DHT22;10281;54.406;18.556;2022-12-04T03:23:02;1.70;99.90
20246;DHT22;10281;54.406;18.556;2022-12-04T03:25:34;1.70;99.90
20246;DHT22;10281;54.406;18.556;2022-12-04T03:28:04;1.70;99.90
20246;DHT22;10281;54.406;18.556;2022-12-04T03:30:38;1.80;99.90
20246;DHT22;10281;54.406;18.556;2022-12-04T03:33:10;1.80;99.90
20246;DHT22;10281;54.406;18.556;2022-12-04T03:35:54;1.80;99.90
20246;DHT22;10281;54.406;18.556;2022-12-04T03:38:32;1.80;99.90
20246;DHT22;10281;54.406;18.556;2022-12-04T03:41:01;1.90;99.90
20246;DHT22;10281;54.406;18.556;2022-12-04T03:43:32;1.90;99.90
20246;DHT22;10281;54.406;18.556;2022-12-04T03:48:53;1.90;99.90
20246;DHT22;10281;54.406;18.556;2022-12-04T03:51:28;1.90;99.90
20246;DHT22;10281;54.406;18.556;2022-12-04T03:53:55;1.90;99.90
20246;DHT22;10281;54.406;18.556;2022-12-04T03:56:27;1.90;99.90
20246;DHT22;10281;54.406;18.556;2022-12-04T03:58:57;1.90;99.90
20246;DHT22;10281;54.406;18.556;2022-12-04T04:01:28;1.90;99.90
20246;DHT22;10281;54.406;18.556;2022-12-04T04:03:56;1.90;99.90
20246;DHT22;10281;54.406;18.556;2022-12-04T04:06:28;1.90;99.90
20246;DHT22;10281;54.406;18.556;2022-12-04T04:09:01;1.90;99.90
20246;DHT22;10281;54.406;18.556;2022-12-04T04:11:30;1.90;99.90
20246;DHT22;10281;54.406;18.556;2022-12-04T04:14:02;1.90;99.90
20246;DHT22;10281;54.406;18.556;2022-12-04T04:16:37;2.00;99.90
20246;DHT22;10281;54.406;18.556;2022-12-04T04:19:14;2.00;99.90
20246;DHT22;10281;54.406;18.556;2022-12-04T04:21:49;2.10;99.90
20246;DHT22;10281;54.406;18.556;2022-12-04T04:24:40;2.10;99.90
20246;DHT22;10281;54.406;18.556;2022-12-04T04:27:08;2.10;99.90
20246;DHT22;10281;54.406;18.556;2022-12-04T04:29:35;2.10;99.90
20246;DHT22;10281;54.406;18.556;2022-12-04T04:32:12;2.10;99.90
20246;DHT22;10281;54.406;18.556;2022-12-04T04:34:48;2.20;99.90
20246;DHT22;10281;54.406;18.556;2022-12-04T04:37:38;2.20;99.90
20246;DHT22;10281;54.406;18.556;2022-12-04T04:40:12;2.20;99.90
20246;DHT22;10281;54.406;18.556;2022-12-04T04:42:50;2.20;99.90
20246;DHT22;10281;54.406;18.556;2022-12-04T04:45:30;2.30;99.90
20246;DHT22;10281;54.406;18.556;2022-12-04T04:48:04;2.20;99.90
20246;DHT22;10281;54.406;18.556;2022-12-04T04:50:32;2.20;99.90
20246;DHT22;10281;54.406;18.556;2022-12-04T04:53:03;2.20;99.90
20246;DHT22;10281;54.406;18.556;2022-12-04T04:55:30;2.20;99.90
20246;DHT22;10281;54.406;18.556;2022-12-04T04:58:08;2.20;99.90
20246;DHT22;10281;54.406;18.556;2022-12-04T05:00:35;2.20;99.90
20246;DHT22;10281;54.406;18.556;2022-12-04T05:03:02;2.20;99.90
20246;DHT22;10281;54.406;18.556;2022-12-04T05:05:29;2.20;99.90
20246;DHT22;10281;54.406;18.556;2022-12-04T05:07:56;2.30;99.90
20246;DHT22;10281;54.406;18.556;2022-12-04T05:10:23;2.30;99.90
20246;DHT22;10281;54.406;18.556;2022-12-04T05:12:49;2.30;99.90
20246;DHT22;10281;54.406;18.556;2022-12-04T05:15:16;2.20;99.90
20246;DHT22;10281;54.406;18.556;2022-12-04T05:17:42;2.30;99.90
20246;DHT22;10281;54.406;18.556;2022-12-04T05:20:10;2.30;99.90
20246;DHT22;10281;54.406;18.556;2022-12-04T05:22:37;2.30;99.90
20246;DHT22;10281;54.406;18.556;2022-12-04T05:25:04;2.30;99.90
20246;DHT22;10281;54.406;18.556;2022-12-04T05:27:31;2.30;99.90
20246;DHT22;10281;54.406;18.556;2022-12-04T05:29:58;2.30;99.90
20246;DHT22;10281;54.406;18.556;2022-12-04T05:32:26;2.30;99.90
20246;DHT22;10281;54.406;18.556;2022-12-04T05:34:54;2.30;99.90
20246;DHT22;10281;54.406;18.556;2022-12-04T05:37:21;2.30;99.90
20246;DHT22;10281;54.406;18.556;2022-12-04T05:39:48;2.30;99.90
20246;DHT22;10281;54.406;18.556;2022-12-04T05:42:15;2.30;99.90
20246;DHT22;10281;54.406;18.556;2022-12-04T05:44:42;2.30;99.90
20246;DHT22;10281;54.406;18.556;2022-12-04T05:47:08;2.30;99.90
20246;DHT22;10281;54.406;18.556;2022-12-04T05:49:35;2.30;99.90
20246;DHT22;10281;54.406;18.556;2022-12-04T05:52:04;2.30;99.90
20246;DHT22;10281;54.406;18.556;2022-12-04T05:54:31;2.30;99.90
20246;DHT22;10281;54.406;18.556;2022-12-04T05:56:57;2.30;99.90
20246;DHT22;10281;54.406;18.556;2022-12-04T05:59:24;2.30;99.90
20246;DHT22;10281;54.406;18.556;2022-12-04T06:01:51;2.30;99.90
20246;DHT22;10281;54.406;18.556;2022-12-04T06:04:17;2.30;99.90
20246;DHT22;10281;54.406;18.556;2022-12-04T06:06:44;2.30;99.90
20246;DHT22;10281;54.406;18.556;2022-12-04T06:09:11;2.30;99.90
20246;DHT22;10281;54.406;18.556;2022-12-04T06:11:40;2.30;99.90
20246;DHT22;10281;54.406;18.556;2022-12-04T06:14:09;2.30;99.90
20246;DHT22;10281;54.406;18.556;2022-12-04T06:16:38;2.40;99.90
20246;DHT22;10281;54.406;18.556;2022-12-04T06:19:09;2.40;99.90
20246;DHT22;10281;54.406;18.556;2022-12-04T06:21:38;2.40;99.90
20246;DHT22;10281;54.406;18.556;2022-12-04T06:24:05;2.40;99.90
20246;DHT22;10281;54.406;18.556;2022-12-04T06:26:32;2.40;99.90
20246;DHT22;10281;54.406;18.556;2022-12-04T06:28:59;2.50;99.90
20246;DHT22;10281;54.406;18.556;2022-12-04T06:31:27;2.50;99.90
20246;DHT22;10281;54.406;18.556;2022-12-04T06:33:56;2.50;99.90
20246;DHT22;10281;54.406;18.556;2022-12-04T06:36:24;2.50;99.90
20246;DHT22;10281;54.406;18.556;2022-12-04T06:38:52;2.50;99.90
20246;DHT22;10281;54.406;18.556;2022-12-04T06:41:20;2.50;99.90
20246;DHT22;10281;54.406;18.556;2022-12-04T06:43:47;2.50;99.90
20246;DHT22;10281;54.406;18.556;2022-12-04T06:46:18;2.50;99.90
20246;DHT22;10281;54.406;18.556;2022-12-04T06:48:45;2.50;99.90
20246;DHT22;10281;54.406;18.556;2022-12-04T06:51:17;2.50;99.90
20246;DHT22;10281;54.406;18.556;2022-12-04T06:53:45;2.50;99.90
20246;DHT22;10281;54.406;18.556;2022-12-04T06:56:14;2.50;99.90
20246;DHT22;10281;54.406;18.556;2022-12-04T06:58:44;2.50;99.90
20246;DHT22;10281;54.406;18.556;2022-12-04T07:01:13;2.60;99.90
20246;DHT22;10281;54.406;18.556;2022-12-04T07:03:41;2.50;99.90
20246;DHT22;10281;54.406;18.556;2022-12-04T07:06:11;2.60;99.90
20246;DHT22;10281;54.406;18.556;2022-12-04T07:08:38;2.60;99.90
20246;DHT22;10281;54.406;18.556;2022-12-04T07:11:05;2.50;99.90
20246;DHT22;10281;54.406;18.556;2022-12-04T07:13:32;2.50;99.90
20246;DHT22;10281;54.406;18.556;2022-12-04T07:16:01;2.60;99.90
20246;DHT22;10281;54.406;18.556;2022-12-04T07:18:30;2.60;99.90
20246;DHT22;10281;54.406;18.556;2022-12-04T07:20:58;2.50;99.90
20246;DHT22;10281;54.406;18.556;2022-12-04T07:23:24;2.50;99.90
20246;DHT22;10281;54.406;18.556;2022-12-04T07:25:51;2.60;99.90
20246;DHT22;10281;54.406;18.556;2022-12-04T07:28:18;2.60;99.90
20246;DHT22;10281;54.406;18.556;2022-12-04T07:30:44;2.50;99.90
20246;DHT22;10281;54.406;18.556;2022-12-04T07:33:11;2.50;99.90
20246;DHT22;10281;54.406;18.556;2022-12-04T07:35:38;2.50;99.90
20246;DHT22;10281;54.406;18.556;2022-12-04T07:38:05;2.60;99.90
20246;DHT22;10281;54.406;18.556;2022-12-04T07:40:31;2.50;99.90
20246;DHT22;10281;54.406;18.556;2022-12-04T07:42:58;2.50;99.90
20246;DHT22;10281;54.406;18.556;2022-12-04T07:45:24;2.50;99.90
20246;DHT22;10281;54.406;18.556;2022-12-04T07:47:51;2.50;99.90
20246;DHT22;10281;54.406;18.556;2022-12-04T07:50:18;2.60;99.90
20246;DHT22;10281;54.406;18.556;2022-12-04T07:52:44;2.50;99.90
20246;DHT22;10281;54.406;18.556;2022-12-04T07:55:11;2.60;99.90
20246;DHT22;10281;54.406;18.556;2022-12-04T07:57:37;2.60;99.90
20246;DHT22;10281;54.406;18.556;2022-12-04T08:00:05;2.60;99.90
20246;DHT22;10281;54.406;18.556;2022-12-04T08:02:32;2.60;99.90
20246;DHT22;10281;54.406;18.556;2022-12-04T08:04:59;2.60;99.90
20246;DHT22;10281;54.406;18.556;2022-12-04T08:07:25;2.70;99.90
20246;DHT22;10281;54.406;18.556;2022-12-04T08:09:52;2.60;99.90
20246;DHT22;10281;54.406;18.556;2022-12-04T08:12:19;2.60;99.90
20246;DHT22;10281;54.406;18.556;2022-12-04T08:14:45;2.60;99.90
20246;DHT22;10281;54.406;18.556;2022-12-04T08:17:12;2.60;99.90
20246;DHT22;10281;54.406;18.556;2022-12-04T08:19:38;2.60;99.90
20246;DHT22;10281;54.406;18.556;2022-12-04T08:22:05;2.60;99.90
20246;DHT22;10281;54.406;18.556;2022-12-04T08:24:32;2.60;99.90
20246;DHT22;10281;54.406;18.556;2022-12-04T08:26:58;2.60;99.90
20246;DHT22;10281;54.406;18.556;2022-12-04T08:29:26;2.50;99.90
20246;DHT22;10281;54.406;18.556;2022-12-04T08:31:53;2.60;99.90
20246;DHT22;10281;54.406;18.556;2022-12-04T08:34:21;2.60;99.90
20246;DHT22;10281;54.406;18.556;2022-12-04T08:36:47;2.60;99.90
20246;DHT22;10281;54.406;18.556;2022-12-04T08:39:14;2.60;99.90
20246;DHT22;10281;54.406;18.556;2022-12-04T08:41:40;2.60;99.90
20246;DHT22;10281;54.406;18.556;2022-12-04T08:44:08;2.60;99.90
20246;DHT22;10281;54.406;18.556;2022-12-04T08:49:07;2.70;99.90
20246;DHT22;10281;54.406;18.556;2022-12-04T08:51:35;2.70;99.90
20246;DHT22;10281;54.406;18.556;2022-12-04T08:54:06;2.70;99.90
20246;DHT22;10281;54.406;18.556;2022-12-04T08:56:34;2.70;99.90
20246;DHT22;10281;54.406;18.556;2022-12-04T08:59:03;2.70;99.90
20246;DHT22;10281;54.406;18.556;2022-12-04T09:01:30;2.70;99.90
20246;DHT22;10281;54.406;18.556;2022-12-04T09:03:57;2.70;99.90
20246;DHT22;10281;54.406;18.556;2022-12-04T09:06:24;2.70;99.90
20246;DHT22;10281;54.406;18.556;2022-12-04T09:08:52;2.70;99.90
20246;DHT22;10281;54.406;18.556;2022-12-04T09:11:21;2.80;99.90
20246;DHT22;10281;54.406;18.556;2022-12-04T09:13:48;2.80;99.90
20246;DHT22;10281;54.406;18.556;2022-12-04T09:16:18;2.80;99.90
20246;DHT22;10281;54.406;18.556;2022-12-04T09:18:45;2.90;99.90
20246;DHT22;10281;54.406;18.556;2022-12-04T09:21:15;2.90;99.90
20246;DHT22;10281;54.406;18.556;2022-12-04T09:23:42;2.90;99.90
20246;DHT22;10281;54.406;18.556;2022-12-04T09:26:24;2.90;99.90
20246;DHT22;10281;54.406;18.556;2022-12-04T09:28:53;2.90;99.90
20246;DHT22;10281;54.406;18.556;2022-12-04T09:31:22;2.90;99.90
20246;DHT22;10281;54.406;18.556;2022-12-04T09:33:49;2.90;99.90
20246;DHT22;10281;54.406;18.556;2022-12-04T09:36:16;2.90;99.90
20246;DHT22;10281;54.406;18.556;2022-12-04T09:38:45;2.90;99.90
20246;DHT22;10281;54.406;18.556;2022-12-04T09:41:30;3.00;99.90
20246;DHT22;10281;54.406;18.556;2022-12-04T09:44:01;2.90;99.90
20246;DHT22;10281;54.406;18.556;2022-12-04T09:46:37;2.90;99.90
20246;DHT22;10281;54.406;18.556;2022-12-04T09:49:13;2.90;99.90
20246;DHT22;10281;54.406;18.556;2022-12-04T09:51:40;2.90;99.90
20246;DHT22;10281;54.406;18.556;2022-12-04T09:54:16;2.90;99.90
20246;DHT22;10281;54.406;18.556;2022-12-04T09:56:50;2.90;99.90
20246;DHT22;10281;54.406;18.556;2022-12-04T09:59:18;2.90;99.90
20246;DHT22;10281;54.406;18.556;2022-12-04T10:01:50;2.90;99.90
20246;DHT22;10281;54.406;18.556;2022-12-04T10:04:17;3.00;99.90
20246;DHT22;10281;54.406;18.556;2022-12-04T10:09:26;2.90;99.90
20246;DHT22;10281;54.406;18.556;2022-12-04T10:12:15;2.90;99.90
20246;DHT22;10281;54.406;18.556;2022-12-04T10:14:50;2.90;99.90
20246;DHT22;10281;54.406;18.556;2022-12-04T10:17:40;3.00;99.90
20246;DHT22;10281;54.406;18.556;2022-12-04T10:20:27;3.00;99.90
20246;DHT22;10281;54.406;18.556;2022-12-04T10:23:07;3.00;99.90
20246;DHT22;10281;54.406;18.556;2022-12-04T10:25:35;3.00;99.90
20246;DHT22;10281;54.406;18.556;2022-12-04T10:28:10;3.00;99.90
20246;DHT22;10281;54.406;18.556;2022-12-04T10:30:36;3.00;99.90
20246;DHT22;10281;54.406;18.556;2022-12-04T10:33:15;3.00;99.90
20246;DHT22;10281;54.406;18.556;2022-12-04T10:35:43;3.00;99.90
20246;DHT22;10281;54.406;18.556;2022-12-04T10:43:43;3.10;99.90
20246;DHT22;10281;54.406;18.556;2022-12-04T10:49:04;3.00;99.90
20246;DHT22;10281;54.406;18.556;2022-12-04T10:51:38;3.00;99.90
20246;DHT22;10281;54.406;18.556;2022-12-04T10:54:29;3.00;99.90
20246;DHT22;10281;54.406;18.556;2022-12-04T10:56:57;3.00;99.90
20246;DHT22;10281;54.406;18.556;2022-12-04T10:59:25;3.00;99.90
20246;DHT22;10281;54.406;18.556;2022-12-04T11:01:59;3.00;99.90
20246;DHT22;10281;54.406;18.556;2022-12-04T11:04:29;3.00;99.90
20246;DHT22;10281;54.406;18.556;2022-12-04T11:07:05;2.90;99.90
20246;DHT22;10281;54.406;18.556;2022-12-04T11:09:33;3.00;99.90
20246;DHT22;10281;54.406;18.556;2022-12-04T11:12:06;2.90;99.90
20246;DHT22;10281;54.406;18.556;2022-12-04T11:14:33;2.90;99.90
20246;DHT22;10281;54.406;18.556;2022-12-04T11:17:04;2.90;99.90
20246;DHT22;10281;54.406;18.556;2022-12-04T11:19:33;3.00;99.90
20246;DHT22;10281;54.406;18.556;2022-12-04T11:22:11;3.00;99.90
20246;DHT22;10281;54.406;18.556;2022-12-04T11:24:35;3.00;99.90
20246;DHT22;10281;54.406;18.556;2022-12-04T11:27:04;2.90;99.90
20246;DHT22;10281;54.406;18.556;2022-12-04T11:29:35;3.00;99.90
20246;DHT22;10281;54.406;18.556;2022-12-04T11:32:03;3.00;99.90
20246;DHT22;10281;54.406;18.556;2022-12-04T11:34:35;3.00;99.90
20246;DHT22;10281;54.406;18.556;2022-12-04T11:37:03;3.00;99.90
20246;DHT22;10281;54.406;18.556;2022-12-04T11:39:34;3.00;99.90
20246;DHT22;10281;54.406;18.556;2022-12-04T11:42:14;3.00;99.90
20246;DHT22;10281;54.406;18.556;2022-12-04T11:44:35;3.00;99.90
20246;DHT22;10281;54.406;18.556;2022-12-04T11:47:04;3.00;99.90
20246;DHT22;10281;54.406;18.556;2022-12-04T11:49:32;3.00;99.90
20246;DHT22;10281;54.406;18.556;2022-12-04T11:52:28;3.00;99.90
20246;DHT22;10281;54.406;18.556;2022-12-04T11:55:10;3.00;99.90
20246;DHT22;10281;54.406;18.556;2022-12-04T11:57:42;3.00;99.90
20246;DHT22;10281;54.406;18.556;2022-12-04T12:00:15;3.00;99.90
20246;DHT22;10281;54.406;18.556;2022-12-04T12:03:58;3.00;99.90
20246;DHT22;10281;54.406;18.556;2022-12-04T12:05:43;3.00;99.90
20246;DHT22;10281;54.406;18.556;2022-12-04T12:11:06;3.00;99.90
20246;DHT22;10281;54.406;18.556;2022-12-04T12:13:44;3.00;99.90
20246;DHT22;10281;54.406;18.556;2022-12-04T12:16:39;3.00;99.90
20246;DHT22;10281;54.406;18.556;2022-12-04T12:19:17;3.00;99.90
20246;DHT22;10281;54.406;18.556;2022-12-04T12:21:52;3.10;99.90
20246;DHT22;10281;54.406;18.556;2022-12-04T12:24:24;3.00;99.90
20246;DHT22;10281;54.406;18.556;2022-12-04T12:27:01;3.00;99.90
20246;DHT22;10281;54.406;18.556;2022-12-04T12:29:35;3.00;99.90
20246;DHT22;10281;54.406;18.556;2022-12-04T12:32:09;3.00;99.90
20246;DHT22;10281;54.406;18.556;2022-12-04T12:34:39;3.00;99.90
20246;DHT22;10281;54.406;18.556;2022-12-04T12:37:13;3.00;99.90
20246;DHT22;10281;54.406;18.556;2022-12-04T12:39:41;3.00;99.90
20246;DHT22;10281;54.406;18.556;2022-12-04T12:42:14;3.00;99.90
20246;DHT22;10281;54.406;18.556;2022-12-04T12:44:47;3.00;99.90
20246;DHT22;10281;54.406;18.556;2022-12-04T12:47:17;3.00;99.90
20246;DHT22;10281;54.406;18.556;2022-12-04T12:52:29;3.00;99.90
20246;DHT22;10281;54.406;18.556;2022-12-04T12:55:28;3.00;99.90
20246;DHT22;10281;54.406;18.556;2022-12-04T12:58:03;3.00;99.90
20246;DHT22;10281;54.406;18.556;2022-12-04T13:00:31;3.00;99.90
20246;DHT22;10281;54.406;18.556;2022-12-04T13:05:39;2.90;99.90
20246;DHT22;10281;54.406;18.556;2022-12-04T13:08:33;2.90;99.90
20246;DHT22;10281;54.406;18.556;2022-12-04T13:11:09;2.90;99.90
20246;DHT22;10281;54.406;18.556;2022-12-04T13:13:40;2.90;99.90
20246;DHT22;10281;54.406;18.556;2022-12-04T13:16:16;2.90;99.90
20246;DHT22;10281;54.406;18.556;2022-12-04T13:19:22;2.90;99.90
20246;DHT22;10281;54.406;18.556;2022-12-04T13:22:03;2.90;99.90
20246;DHT22;10281;54.406;18.556;2022-12-04T13:24:39;2.90;99.90
20246;DHT22;10281;54.406;18.556;2022-12-04T13:27:11;2.90;99.90
20246;DHT22;10281;54.406;18.556;2022-12-04T13:29:51;2.90;99.90
20246;DHT22;10281;54.406;18.556;2022-12-04T13:32:58;2.90;99.90
20246;DHT22;10281;54.406;18.556;2022-12-04T13:35:46;2.90;99.90
20246;DHT22;10281;54.406;18.556;2022-12-04T13:39:27;2.90;99.90
20246;DHT22;10281;54.406;18.556;2022-12-04T13:41:05;2.90;99.90
20246;DHT22;10281;54.406;18.556;2022-12-04T13:43:35;2.90;99.90
20246;DHT22;10281;54.406;18.556;2022-12-04T13:46:05;2.90;99.90
20246;DHT22;10281;54.406;18.556;2022-12-04T13:48:38;2.90;99.90
20246;DHT22;10281;54.406;18.556;2022-12-04T13:51:23;2.90;99.90
20246;DHT22;10281;54.406;18.556;2022-12-04T13:56:56;2.90;99.90
20246;DHT22;10281;54.406;18.556;2022-12-04T13:59:36;2.80;99.90
20246;DHT22;10281;54.406;18.556;2022-12-04T14:04:43;2.90;99.90
20246;DHT22;10281;54.406;18.556;2022-12-04T14:09:48;2.90;99.90
20246;DHT22;10281;54.406;18.556;2022-12-04T14:12:15;2.90;99.90
20246;DHT22;10281;54.406;18.556;2022-12-04T14:14:51;2.80;99.90
20246;DHT22;10281;54.406;18.556;2022-12-04T14:17:26;2.80;99.90
20246;DHT22;10281;54.406;18.556;2022-12-04T14:19:56;2.90;99.90
20246;DHT22;10281;54.406;18.556;2022-12-04T14:22:37;2.90;99.90
20246;DHT22;10281;54.406;18.556;2022-12-04T14:25:21;2.90;99.90
20246;DHT22;10281;54.406;18.556;2022-12-04T14:27:51;2.90;99.90
20246;DHT22;10281;54.406;18.556;2022-12-04T14:30:25;2.90;99.90
20246;DHT22;10281;54.406;18.556;2022-12-04T14:33:05;2.90;99.90
20246;DHT22;10281;54.406;18.556;2022-12-04T14:35:32;2.90;99.90
20246;DHT22;10281;54.406;18.556;2022-12-04T14:38:01;2.90;99.90
20246;DHT22;10281;54.406;18.556;2022-12-04T14:40:41;2.90;99.90
20246;DHT22;10281;54.406;18.556;2022-12-04T14:43:14;2.90;99.90
20246;DHT22;10281;54.406;18.556;2022-12-04T14:45:49;2.90;99.90
20246;DHT22;10281;54.406;18.556;2022-12-04T14:48:32;2.90;99.90
20246;DHT22;10281;54.406;18.556;2022-12-04T14:51:09;2.90;99.90
20246;DHT22;10281;54.406;18.556;2022-12-04T14:53:44;2.90;99.90
20246;DHT22;10281;54.406;18.556;2022-12-04T14:56:23;3.00;99.90
20246;DHT22;10281;54.406;18.556;2022-12-04T14:58:49;3.00;99.90
20246;DHT22;10281;54.406;18.556;2022-12-04T15:01:23;2.90;99.90
20246;DHT22;10281;54.406;18.556;2022-12-04T15:03:53;2.90;99.90
20246;DHT22;10281;54.406;18.556;2022-12-04T15:06:27;3.00;99.90
20246;DHT22;10281;54.406;18.556;2022-12-04T15:08:59;3.00;99.90
20246;DHT22;10281;54.406;18.556;2022-12-04T15:11:31;3.00;99.90
20246;DHT22;10281;54.406;18.556;2022-12-04T15:14:12;3.00;99.90
20246;DHT22;10281;54.406;18.556;2022-12-04T15:16:39;3.00;99.90
20246;DHT22;10281;54.406;18.556;2022-12-04T15:19:15;3.00;99.90
20246;DHT22;10281;54.406;18.556;2022-12-04T15:21:43;3.00;99.90
20246;DHT22;10281;54.406;18.556;2022-12-04T15:24:14;3.00;99.90
20246;DHT22;10281;54.406;18.556;2022-12-04T15:26:44;3.00;99.90
20246;DHT22;10281;54.406;18.556;2022-12-04T15:29:16;3.10;99.90
20246;DHT22;10281;54.406;18.556;2022-12-04T15:31:45;3.00;99.90
20246;DHT22;10281;54.406;18.556;2022-12-04T15:34:16;3.00;99.90
20246;DHT22;10281;54.406;18.556;2022-12-04T15:36:49;3.00;99.90
20246;DHT22;10281;54.406;18.556;2022-12-04T15:39:22;3.00;99.90
20246;DHT22;10281;54.406;18.556;2022-12-04T15:41:49;3.00;99.90
20246;DHT22;10281;54.406;18.556;2022-12-04T15:44:34;3.00;99.90
20246;DHT22;10281;54.406;18.556;2022-12-04T15:47:02;3.00;99.90
20246;DHT22;10281;54.406;18.556;2022-12-04T15:49:31;2.90;99.90
20246;DHT22;10281;54.406;18.556;2022-12-04T15:52:06;3.00;99.90
20246;DHT22;10281;54.406;18.556;2022-12-04T15:54:33;3.00;99.90
20246;DHT22;10281;54.406;18.556;2022-12-04T15:57:06;3.00;99.90
20246;DHT22;10281;54.406;18.556;2022-12-04T15:59:34;3.00;99.90
20246;DHT22;10281;54.406;18.556;2022-12-04T16:02:07;3.00;99.90
20246;DHT22;10281;54.406;18.556;2022-12-04T16:04:33;3.00;99.90
20246;DHT22;10281;54.406;18.556;2022-12-04T16:07:01;3.00;99.90
20246;DHT22;10281;54.406;18.556;2022-12-04T16:09:28;3.00;99.90
20246;DHT22;10281;54.406;18.556;2022-12-04T16:11:59;2.90;99.90
20246;DHT22;10281;54.406;18.556;2022-12-04T16:14:26;2.90;99.90
20246;DHT22;10281;54.406;18.556;2022-12-04T16:16:56;2.90;99.90
20246;DHT22;10281;54.406;18.556;2022-12-04T16:19:34;2.90;99.90
20246;DHT22;10281;54.406;18.556;2022-12-04T16:22:03;3.00;99.90
20246;DHT22;10281;54.406;18.556;2022-12-04T16:24:31;3.00;99.90
20246;DHT22;10281;54.406;18.556;2022-12-04T16:26:59;2.90;99.90